Time,TemperatureF,DewpointF,PressureIn,WindDirection,WindDirectionDegrees,WindSpeedMPH,WindSpeedGustMPH,Humidity,HourlyPrecipIn,Conditions,Clouds,dailyrainin,SoftwareType,DateUTC
2013-08-26 00:01:00,58.5,56.2,31.79,North,5,0.0,0.0,92,0.00,,SKC,0.00,VWS V14.01,2013-08-26 04:01:00,
2013-08-26 00:06:00,58.4,56.1,31.79,North,5,0.0,0.0,92,0.00,,SKC,0.00,VWS V14.01,2013-08-26 04:06:00,
2013-08-26 00:11:00,58.4,56.1,31.79,North,5,0.0,0.0,92,0.00,,SKC,0.00,VWS V14.01,2013-08-26 04:11:00,
2013-08-26 00:16:00,58.3,56.0,31.79,North,5,0.0,0.0,92,0.00,,SKC,0.00,VWS V14.01,2013-08-26 04:16:00,
2013-08-26 00:21:00,58.2,55.9,31.79,North,5,0.0,0.0,92,0.00,,SKC,0.00,VWS V14.01,2013-08-26 04:21:00,
2013-08-26 00:26:00,58.1,55.8,31.79,North,5,0.0,0.0,92,0.00,,SKC,0.00,VWS V14.01,2013-08-26 04:26:00,
2013-08-26 00:31:00,58.0,55.7,31.79,North,5,0.0,0.0,92,0.00,,SKC,0.00,VWS V14.01,2013-08-26 04:31:00,
2013-08-26 00:36:00,57.8,55.5,31.79,North,5,0.0,0.0,92,0.00,,SKC,0.00,VWS V14.01,2013-08-26 04:36:00,
2013-08-26 00:41:00,57.8,55.5,31.79,North,5,0.0,0.0,92,0.00,,SKC,0.00,VWS V14.01,2013-08-26 04:41:00,
2013-08-26 00:46:00,57.7,55.4,31.79,North,360,0.0,0.0,92,0.00,,SKC,0.00,VWS V14.01,2013-08-26 04:46:00,
2013-08-26 00:51:00,57.7,55.7,31.79,North,360,0.0,0.0,93,0.00,,SKC,0.00,VWS V14.01,2013-08-26 04:51:00,
2013-08-26 00:56:00,57.7,55.7,31.79,North,5,0.0,0.0,93,0.00,,SKC,0.00,VWS V14.01,2013-08-26 04:56:00,
2013-08-26 01:01:00,57.5,55.2,31.79,North,360,0.0,0.0,92,0.00,,SKC,0.00,VWS V14.01,2013-08-26 05:01:00,
2013-08-26 01:05:00,57.3,55.0,31.79,North,5,0.0,0.0,92,0.00,,SKC,0.00,VWS V14.01,2013-08-26 05:05:00,
2013-08-26 01:10:00,57.2,55.2,31.79,North,5,0.0,0.0,93,0.00,,SKC,0.00,VWS V14.01,2013-08-26 05:10:00,
2013-08-26 01:15:00,57.2,55.2,31.79,North,5,0.0,0.0,93,0.00,,SKC,0.00,VWS V14.01,2013-08-26 05:15:00,
2013-08-26 01:20:00,57.1,55.1,31.79,North,360,0.0,0.0,93,0.00,,SKC,0.00,VWS V14.01,2013-08-26 05:20:00,
2013-08-26 01:25:00,57.0,55.0,31.79,North,5,0.0,0.0,93,0.00,,SKC,0.00,VWS V14.01,2013-08-26 05:25:00,
2013-08-26 01:30:00,56.8,54.8,31.79,North,360,0.0,0.0,93,0.00,,SKC,0.00,VWS V14.01,2013-08-26 05:30:00,
2013-08-26 01:35:00,56.6,54.6,31.79,North,5,0.0,0.0,93,0.00,,SKC,0.00,VWS V14.01,2013-08-26 05:35:00,
2013-08-26 01:40:00,56.5,54.5,31.79,North,5,0.0,0.0,93,0.00,,SKC,0.00,VWS V14.01,2013-08-26 05:40:00,
2013-08-26 01:45:00,56.4,54.4,31.79,North,360,0.0,0.0,93,0.00,,SKC,0.00,VWS V14.01,2013-08-26 05:45:00,
2013-08-26 01:50:00,56.4,54.4,31.79,North,5,0.0,0.0,93,0.00,,SKC,0.00,VWS V14.01,2013-08-26 05:50:00,
2013-08-26 01:55:00,56.4,54.4,31.79,North,5,0.0,0.0,93,0.00,,SKC,0.00,VWS V14.01,2013-08-26 05:55:00,
2013-08-26 02:00:00,56.3,54.3,31.79,North,360,0.0,0.0,93,0.00,,SKC,0.00,VWS V14.01,2013-08-26 06:00:00,
2013-08-26 02:05:00,56.2,54.2,31.79,North,5,0.0,0.0,93,0.00,,SKC,0.00,VWS V14.01,2013-08-26 06:05:00,
2013-08-26 02:10:00,56.0,54.0,31.79,North,5,0.0,0.0,93,0.00,,SKC,0.00,VWS V14.01,2013-08-26 06:10:00,
2013-08-26 02:15:00,55.9,53.9,31.79,North,5,0.0,0.0,93,0.00,,SKC,0.00,VWS V14.01,2013-08-26 06:15:00,
2013-08-26 02:20:00,55.7,53.7,31.79,North,5,0.0,0.0,93,0.00,,SKC,0.00,VWS V14.01,2013-08-26 06:20:00,
2013-08-26 02:25:00,55.6,53.6,31.79,North,5,0.0,0.0,93,0.00,,SKC,0.00,VWS V14.01,2013-08-26 06:25:00,
2013-08-26 02:30:00,55.5,53.5,31.79,North,360,0.0,0.0,93,0.00,,SKC,0.00,VWS V14.01,2013-08-26 06:30:00,
2013-08-26 02:35:00,55.5,53.5,31.79,North,5,0.0,0.0,93,0.00,,SKC,0.00,VWS V14.01,2013-08-26 06:35:00,
2013-08-26 02:40:00,55.4,53.4,31.79,North,5,0.0,0.0,93,0.00,,SKC,0.00,VWS V14.01,2013-08-26 06:40:00,
2013-08-26 02:45:00,55.4,53.7,31.79,North,5,0.0,0.0,94,0.00,,SKC,0.00,VWS V14.01,2013-08-26 06:45:00,
2013-08-26 02:50:00,55.4,53.7,31.79,North,360,0.0,0.0,94,0.00,,SKC,0.00,VWS V14.01,2013-08-26 06:50:00,
2013-08-26 02:55:00,55.4,53.7,31.79,North,360,0.0,0.0,94,0.00,,SKC,0.00,VWS V14.01,2013-08-26 06:55:00,
2013-08-26 03:00:00,55.3,53.6,31.79,North,360,0.0,0.0,94,0.00,,SKC,0.00,VWS V14.01,2013-08-26 07:00:00,
2013-08-26 03:05:00,55.2,53.2,31.79,North,5,0.0,0.0,93,0.00,,SKC,0.00,VWS V14.01,2013-08-26 07:05:00,
2013-08-26 03:10:00,55.0,53.0,31.79,North,5,0.0,0.0,93,0.00,,SKC,0.00,VWS V14.01,2013-08-26 07:10:00,
2013-08-26 03:15:00,54.8,53.1,31.79,North,360,0.0,0.0,94,0.00,,SKC,0.00,VWS V14.01,2013-08-26 07:15:00,
2013-08-26 03:20:00,54.7,53.0,31.79,North,360,0.0,0.0,94,0.00,,SKC,0.00,VWS V14.01,2013-08-26 07:20:00,
2013-08-26 03:25:00,54.7,53.0,31.79,North,360,0.0,0.0,94,0.00,,SKC,0.00,VWS V14.01,2013-08-26 07:25:00,
2013-08-26 03:30:00,54.7,53.0,31.79,North,360,0.0,0.0,94,0.00,,SKC,0.00,VWS V14.01,2013-08-26 07:30:00,
2013-08-26 03:35:00,54.6,52.9,31.79,North,360,0.0,0.0,94,0.00,,SKC,0.00,VWS V14.01,2013-08-26 07:35:00,
2013-08-26 03:40:00,54.6,52.9,31.79,North,5,0.0,0.0,94,0.00,,SKC,0.00,VWS V14.01,2013-08-26 07:40:00,
2013-08-26 03:45:00,54.4,52.7,31.79,North,5,0.0,0.0,94,0.00,,SKC,0.00,VWS V14.01,2013-08-26 07:45:00,
2013-08-26 03:50:00,54.2,52.5,31.79,North,5,0.0,0.0,94,0.00,,SKC,0.00,VWS V14.01,2013-08-26 07:50:00,
2013-08-26 03:55:00,54.1,52.4,31.79,North,360,0.0,0.0,94,0.00,,SKC,0.00,VWS V14.01,2013-08-26 07:55:00,
2013-08-26 04:00:00,54.1,52.4,31.79,North,360,0.0,0.0,94,0.00,,SKC,0.00,VWS V14.01,2013-08-26 08:00:00,
2013-08-26 04:05:00,54.1,52.4,31.79,North,360,0.0,0.0,94,0.00,,SKC,0.00,VWS V14.01,2013-08-26 08:05:00,
2013-08-26 04:10:00,54.3,52.6,31.79,North,5,0.0,0.0,94,0.00,,SKC,0.00,VWS V14.01,2013-08-26 08:10:00,
2013-08-26 04:15:00,54.4,52.7,31.79,North,360,0.0,0.0,94,0.00,,SKC,0.00,VWS V14.01,2013-08-26 08:15:00,
2013-08-26 04:20:00,54.2,52.5,31.79,North,5,0.0,0.0,94,0.00,,SKC,0.00,VWS V14.01,2013-08-26 08:20:00,
2013-08-26 04:25:00,54.1,52.4,31.79,North,5,0.0,0.0,94,0.00,,SKC,0.00,VWS V14.01,2013-08-26 08:25:00,
2013-08-26 04:30:00,54.1,52.4,31.79,North,5,0.0,0.0,94,0.00,,SKC,0.00,VWS V14.01,2013-08-26 08:30:00,
2013-08-26 04:35:00,54.0,52.3,31.79,North,5,0.0,0.0,94,0.00,,SKC,0.00,VWS V14.01,2013-08-26 08:35:00,
2013-08-26 04:40:00,53.9,52.2,31.79,North,5,0.0,0.0,94,0.00,,SKC,0.00,VWS V14.01,2013-08-26 08:40:00,
2013-08-26 04:45:00,53.8,52.1,31.79,North,5,0.0,0.0,94,0.00,,SKC,0.00,VWS V14.01,2013-08-26 08:45:00,
2013-08-26 04:50:00,53.8,52.1,31.79,North,5,0.0,0.0,94,0.00,,SKC,0.00,VWS V14.01,2013-08-26 08:50:00,
2013-08-26 04:55:00,53.7,52.0,31.79,North,5,0.0,0.0,94,0.00,,SKC,0.00,VWS V14.01,2013-08-26 08:55:00,
2013-08-26 05:00:00,53.6,51.9,31.79,North,5,0.0,0.0,94,0.00,,SKC,0.00,VWS V14.01,2013-08-26 09:00:00,
2013-08-26 05:05:00,53.6,51.9,31.79,North,360,0.0,0.0,94,0.00,,SKC,0.00,VWS V14.01,2013-08-26 09:05:00,
2013-08-26 05:10:00,53.7,52.0,31.79,North,5,0.0,0.0,94,0.00,,SKC,0.00,VWS V14.01,2013-08-26 09:10:00,
2013-08-26 05:15:00,53.9,52.2,31.79,North,360,0.0,0.0,94,0.00,,SKC,0.00,VWS V14.01,2013-08-26 09:15:00,
2013-08-26 05:20:00,54.1,52.4,31.79,North,360,0.0,0.0,94,0.00,,SKC,0.00,VWS V14.01,2013-08-26 09:20:00,
2013-08-26 05:25:00,54.2,52.5,31.79,North,5,0.0,0.0,94,0.00,,SKC,0.00,VWS V14.01,2013-08-26 09:25:00,
2013-08-26 05:30:00,54.3,52.6,31.79,North,5,0.0,0.0,94,0.00,,SKC,0.00,VWS V14.01,2013-08-26 09:30:00,
2013-08-26 05:35:00,54.4,53.0,31.79,North,5,0.0,0.0,95,0.00,,SKC,0.00,VWS V14.01,2013-08-26 09:35:00,
2013-08-26 05:40:00,54.6,53.2,31.79,North,5,0.0,0.0,95,0.00,,SKC,0.00,VWS V14.01,2013-08-26 09:40:00,
2013-08-26 05:45:00,54.6,52.9,31.79,North,5,0.0,0.0,94,0.00,,SKC,0.00,VWS V14.01,2013-08-26 09:45:00,
2013-08-26 05:50:00,54.4,53.0,31.79,North,5,0.0,0.0,95,0.00,,SKC,0.00,VWS V14.01,2013-08-26 09:50:00,
2013-08-26 05:55:00,54.3,52.9,31.79,North,5,0.0,0.0,95,0.00,,SKC,0.00,VWS V14.01,2013-08-26 09:55:00,
2013-08-26 06:00:00,54.2,52.5,31.79,North,360,0.0,0.0,94,0.00,,SKC,0.00,VWS V14.01,2013-08-26 10:00:00,
2013-08-26 06:05:00,54.1,52.4,31.79,North,5,0.0,0.0,94,0.00,,SKC,0.00,VWS V14.01,2013-08-26 10:05:00,
2013-08-26 06:10:00,54.0,52.3,31.79,North,5,0.0,0.0,94,0.00,,SKC,0.00,VWS V14.01,2013-08-26 10:10:00,
2013-08-26 06:15:00,53.9,52.2,31.79,North,360,0.0,0.0,94,0.00,,SKC,0.00,VWS V14.01,2013-08-26 10:15:00,
2013-08-26 06:20:00,53.9,52.5,31.79,North,5,0.0,0.0,95,0.00,,SKC,0.00,VWS V14.01,2013-08-26 10:20:00,
2013-08-26 06:25:00,53.9,52.5,31.79,North,5,0.0,0.0,95,0.00,,SKC,0.00,VWS V14.01,2013-08-26 10:25:00,
2013-08-26 06:30:00,53.9,52.5,31.79,North,5,0.0,0.0,95,0.00,,SKC,0.00,VWS V14.01,2013-08-26 10:30:00,
2013-08-26 06:35:00,53.9,52.5,31.79,North,5,0.0,0.0,95,0.00,,SKC,0.00,VWS V14.01,2013-08-26 10:35:00,
2013-08-26 06:40:00,53.8,52.4,31.79,North,5,0.0,0.0,95,0.00,,SKC,0.00,VWS V14.01,2013-08-26 10:40:00,
2013-08-26 06:45:00,53.7,52.3,31.79,North,5,0.0,0.0,95,0.00,,SKC,0.00,VWS V14.01,2013-08-26 10:45:00,
2013-08-26 06:50:00,53.7,52.3,31.79,North,360,0.0,0.0,95,0.00,,SKC,0.00,VWS V14.01,2013-08-26 10:50:00,
2013-08-26 06:55:00,53.7,52.3,31.79,North,5,0.0,0.0,95,0.00,,SKC,0.00,VWS V14.01,2013-08-26 10:55:00,
2013-08-26 07:00:00,53.6,52.2,31.79,North,360,0.0,0.0,95,0.00,,SKC,0.00,VWS V14.01,2013-08-26 11:00:00,
2013-08-26 07:05:00,53.6,52.2,31.79,North,360,0.0,0.0,95,0.00,,SKC,0.00,VWS V14.01,2013-08-26 11:05:00,
2013-08-26 07:10:00,53.7,52.3,31.79,North,360,0.0,0.0,95,0.00,,SKC,0.00,VWS V14.01,2013-08-26 11:10:00,
2013-08-26 07:15:00,53.7,52.3,31.79,North,5,0.0,0.0,95,0.00,,SKC,0.00,VWS V14.01,2013-08-26 11:15:00,
2013-08-26 07:20:00,53.7,52.3,31.79,North,5,0.0,0.0,95,0.00,,SKC,0.00,VWS V14.01,2013-08-26 11:20:00,
2013-08-26 07:25:00,53.8,52.4,31.79,North,5,0.0,0.0,95,0.00,,SKC,0.00,VWS V14.01,2013-08-26 11:25:00,
2013-08-26 07:30:00,53.8,52.4,31.79,North,5,0.0,0.0,95,0.00,,SKC,0.00,VWS V14.01,2013-08-26 11:30:00,
2013-08-26 07:35:00,53.8,52.4,31.79,North,5,0.0,0.0,95,0.00,,SKC,0.00,VWS V14.01,2013-08-26 11:35:00,
2013-08-26 07:39:00,53.8,52.4,31.79,North,360,0.0,0.0,95,0.00,,SKC,0.00,VWS V14.01,2013-08-26 11:39:00,
2013-08-26 07:44:00,53.8,52.4,31.79,North,5,0.0,0.0,95,0.00,,SKC,0.00,VWS V14.01,2013-08-26 11:44:00,
2013-08-26 07:49:00,53.8,52.4,31.79,North,5,0.0,0.0,95,0.00,,SKC,0.00,VWS V14.01,2013-08-26 11:49:00,
2013-08-26 07:54:00,53.7,52.3,31.79,North,5,0.0,0.0,95,0.00,,SKC,0.00,VWS V14.01,2013-08-26 11:54:00,
2013-08-26 07:59:00,53.8,52.4,31.79,North,5,0.0,0.0,95,0.00,,SKC,0.00,VWS V14.01,2013-08-26 11:59:00,
2013-08-26 08:04:00,53.8,52.4,31.79,North,5,0.0,0.0,95,0.00,,SKC,0.00,VWS V14.01,2013-08-26 12:04:00,
2013-08-26 08:09:00,53.9,52.5,31.79,North,360,0.0,0.0,95,0.00,,SKC,0.00,VWS V14.01,2013-08-26 12:09:00,
2013-08-26 08:14:00,53.8,52.4,31.79,North,5,0.0,0.0,95,0.00,,SKC,0.00,VWS V14.01,2013-08-26 12:14:00,
2013-08-26 08:19:00,53.8,52.4,31.79,North,5,0.0,0.0,95,0.00,,SKC,0.00,VWS V14.01,2013-08-26 12:19:00,
2013-08-26 08:24:00,53.9,52.5,31.79,North,5,0.0,0.0,95,0.00,,SKC,0.00,VWS V14.01,2013-08-26 12:24:00,
2013-08-26 08:29:00,54.1,52.7,31.79,North,5,0.0,0.0,95,0.00,,SKC,0.00,VWS V14.01,2013-08-26 12:29:00,
2013-08-26 08:34:00,54.3,52.9,31.79,North,5,0.0,0.0,95,0.00,,SKC,0.00,VWS V14.01,2013-08-26 12:34:00,
2013-08-26 08:39:00,54.6,53.2,31.79,North,360,0.0,0.0,95,0.00,,SKC,0.00,VWS V14.01,2013-08-26 12:39:00,
2013-08-26 08:44:00,54.8,53.4,31.79,North,5,0.0,0.0,95,0.00,,SKC,0.00,VWS V14.01,2013-08-26 12:44:00,
2013-08-26 08:49:00,54.9,53.5,31.79,North,5,0.0,1.0,95,0.00,,SKC,0.00,VWS V14.01,2013-08-26 12:49:00,
2013-08-26 08:54:00,55.0,53.6,31.79,North,5,0.0,0.0,95,0.00,,SKC,0.00,VWS V14.01,2013-08-26 12:54:00,
2013-08-26 08:59:00,55.2,53.8,31.79,North,5,0.0,0.0,95,0.00,,SKC,0.00,VWS V14.01,2013-08-26 12:59:00,
2013-08-26 09:04:00,55.5,54.1,31.79,North,360,0.0,0.0,95,0.00,,SKC,0.00,VWS V14.01,2013-08-26 13:04:00,
2013-08-26 09:09:00,55.7,54.3,31.79,North,5,0.0,0.0,95,0.00,,SKC,0.00,VWS V14.01,2013-08-26 13:09:00,
2013-08-26 09:14:00,55.9,54.5,31.79,North,5,0.0,0.0,95,0.00,,SKC,0.00,VWS V14.01,2013-08-26 13:14:00,
2013-08-26 09:19:00,56.3,54.9,31.79,North,5,0.0,0.0,95,0.00,,SKC,0.00,VWS V14.01,2013-08-26 13:19:00,
2013-08-26 09:24:00,56.6,55.2,31.79,North,360,0.0,0.0,95,0.00,,SKC,0.00,VWS V14.01,2013-08-26 13:24:00,
2013-08-26 09:29:00,56.6,55.2,31.79,North,360,0.0,0.0,95,0.00,,SKC,0.00,VWS V14.01,2013-08-26 13:29:00,
2013-08-26 09:34:00,56.8,55.4,31.79,North,5,0.0,0.0,95,0.00,,SKC,0.00,VWS V14.01,2013-08-26 13:34:00,
2013-08-26 09:39:00,57.0,55.6,31.79,North,360,0.0,0.0,95,0.00,,SKC,0.00,VWS V14.01,2013-08-26 13:39:00,
2013-08-26 09:44:00,57.5,56.1,31.79,North,5,0.0,0.0,95,0.00,,SKC,0.00,VWS V14.01,2013-08-26 13:44:00,
2013-08-26 09:49:00,57.9,56.5,31.79,North,5,0.0,0.0,95,0.00,,SKC,0.00,VWS V14.01,2013-08-26 13:49:00,
2013-08-26 09:54:00,58.4,57.3,31.79,North,360,0.0,0.0,96,0.00,,SKC,0.00,VWS V14.01,2013-08-26 13:54:00,
2013-08-26 09:59:00,58.8,57.4,31.79,North,5,0.0,1.0,95,0.00,,SKC,0.00,VWS V14.01,2013-08-26 13:59:00,
2013-08-26 10:04:00,59.1,58.0,31.79,North,5,0.0,1.0,96,0.00,,SKC,0.00,VWS V14.01,2013-08-26 14:04:00,
2013-08-26 10:09:00,59.9,58.5,31.79,North,360,0.0,1.0,95,0.00,,SKC,0.00,VWS V14.01,2013-08-26 14:09:00,
2013-08-26 10:14:00,60.9,59.5,31.79,North,5,0.0,1.0,95,0.00,,SKC,0.00,VWS V14.01,2013-08-26 14:14:00,
2013-08-26 10:19:00,61.8,60.4,31.79,North,5,2.0,3.0,95,0.00,,SKC,0.00,VWS V14.01,2013-08-26 14:19:00,
2013-08-26 10:24:00,62.8,60.5,31.79,North,5,1.0,1.0,92,0.00,,SKC,0.00,VWS V14.01,2013-08-26 14:24:00,
2013-08-26 10:29:00,63.8,60.5,31.79,North,5,0.0,0.0,89,0.00,,SKC,0.00,VWS V14.01,2013-08-26 14:29:00,
2013-08-26 10:34:00,64.8,60.5,31.79,North,5,2.0,2.0,86,0.00,,SKC,0.00,VWS V14.01,2013-08-26 14:34:00,
2013-08-26 10:39:00,65.8,60.8,31.79,North,360,0.0,0.0,84,0.00,,SKC,0.00,VWS V14.01,2013-08-26 14:39:00,
2013-08-26 10:44:00,66.4,60.7,31.79,NNE,30,2.0,2.0,82,0.00,,SKC,0.00,VWS V14.01,2013-08-26 14:44:00,
2013-08-26 10:49:00,66.6,60.9,31.79,NNE,30,0.0,1.0,82,0.00,,SKC,0.00,VWS V14.01,2013-08-26 14:49:00,
2013-08-26 10:54:00,66.9,60.5,31.79,NNE,29,0.0,1.0,80,0.00,,SKC,0.00,VWS V14.01,2013-08-26 14:54:00,
2013-08-26 10:59:00,67.2,60.8,31.79,NNE,29,0.0,0.0,80,0.00,,SKC,0.00,VWS V14.01,2013-08-26 14:59:00,
2013-08-26 11:04:00,67.4,61.0,31.79,NNE,31,0.0,1.0,80,0.00,,SKC,0.00,VWS V14.01,2013-08-26 15:04:00,
2013-08-26 11:09:00,68.0,61.2,31.79,NNE,30,0.0,3.0,79,0.00,,SKC,0.00,VWS V14.01,2013-08-26 15:09:00,
2013-08-26 11:14:00,68.7,61.6,31.79,NNE,30,0.0,1.0,78,0.00,,SKC,0.00,VWS V14.01,2013-08-26 15:14:00,
2013-08-26 11:19:00,69.1,61.6,31.79,NNE,31,2.0,2.0,77,0.00,,SKC,0.00,VWS V14.01,2013-08-26 15:19:00,
2013-08-26 11:24:00,69.4,61.9,31.79,NE,35,0.0,1.0,77,0.00,,SKC,0.00,VWS V14.01,2013-08-26 15:24:00,
2013-08-26 11:29:00,70.1,62.2,31.79,NE,36,1.0,3.0,76,0.00,,SKC,0.00,VWS V14.01,2013-08-26 15:29:00,
2013-08-26 11:34:00,70.1,61.4,31.79,SE,127,1.0,3.0,74,0.00,,SKC,0.00,VWS V14.01,2013-08-26 15:34:00,
2013-08-26 11:39:00,70.1,61.8,31.79,East,98,0.0,2.0,75,0.00,,SKC,0.00,VWS V14.01,2013-08-26 15:39:00,
2013-08-26 11:44:00,70.3,60.9,31.79,East,98,0.0,0.0,72,0.00,,SKC,0.00,VWS V14.01,2013-08-26 15:44:00,
2013-08-26 11:49:00,70.3,60.9,31.79,East,99,0.0,0.0,72,0.00,,SKC,0.00,VWS V14.01,2013-08-26 15:49:00,
2013-08-26 11:54:00,71.0,61.5,31.79,East,99,1.0,1.0,72,0.00,,SKC,0.00,VWS V14.01,2013-08-26 15:54:00,
2013-08-26 11:59:00,71.7,61.4,31.79,East,98,1.0,2.0,70,0.00,,SKC,0.00,VWS V14.01,2013-08-26 15:59:00,
2013-08-26 12:04:00,73.0,61.8,31.79,East,98,1.0,3.0,68,0.00,,SKC,0.00,VWS V14.01,2013-08-26 16:04:00,
2013-08-26 12:09:00,73.6,61.1,31.79,SW,229,2.0,3.0,65,0.00,,SKC,0.00,VWS V14.01,2013-08-26 16:09:00,
2013-08-26 12:14:00,73.0,61.4,31.79,SW,229,1.0,2.0,67,0.00,,SKC,0.00,VWS V14.01,2013-08-26 16:14:00,
2013-08-26 12:19:00,73.0,61.4,31.79,SW,229,0.0,0.0,67,0.00,,SKC,0.00,VWS V14.01,2013-08-26 16:19:00,
2013-08-26 12:24:00,73.6,61.5,31.79,SE,146,0.0,1.0,66,0.00,,SKC,0.00,VWS V14.01,2013-08-26 16:24:00,
2013-08-26 12:29:00,73.9,61.8,31.79,NE,38,2.0,4.0,66,0.00,,SKC,0.00,VWS V14.01,2013-08-26 16:29:00,
2013-08-26 12:34:00,73.2,59.9,31.79,North,11,1.0,2.0,63,0.00,,SKC,0.00,VWS V14.01,2013-08-26 16:34:00,
2013-08-26 12:39:00,72.7,59.8,31.79,North,11,0.0,0.0,64,0.00,,SKC,0.00,VWS V14.01,2013-08-26 16:39:00,
2013-08-26 12:44:00,72.6,59.7,31.79,North,11,0.0,0.0,64,0.00,,SKC,0.00,VWS V14.01,2013-08-26 16:44:00,
2013-08-26 12:49:00,72.5,60.1,31.79,NNE,32,2.0,3.0,65,0.00,,SKC,0.00,VWS V14.01,2013-08-26 16:49:00,
2013-08-26 12:54:00,72.6,60.2,31.79,NNE,15,4.0,4.0,65,0.00,,SKC,0.00,VWS V14.01,2013-08-26 16:54:00,
2013-08-26 12:59:00,72.7,59.8,31.79,NNE,13,2.0,3.0,64,0.00,,SKC,0.00,VWS V14.01,2013-08-26 16:59:00,
2013-08-26 13:04:00,73.3,60.0,31.79,NE,48,1.0,1.0,63,0.00,,SKC,0.00,VWS V14.01,2013-08-26 17:04:00,
2013-08-26 13:09:00,73.5,59.7,31.79,NE,48,2.0,2.0,62,0.00,,SKC,0.00,VWS V14.01,2013-08-26 17:09:00,
2013-08-26 13:14:00,73.6,59.8,31.79,North,9,0.0,1.0,62,0.00,,SKC,0.00,VWS V14.01,2013-08-26 17:14:00,
2013-08-26 13:19:00,73.6,59.8,31.79,NNW,345,4.0,4.0,62,0.00,,SKC,0.00,VWS V14.01,2013-08-26 17:19:00,
2013-08-26 13:24:00,73.4,60.0,31.79,North,355,0.0,0.0,63,0.00,,SKC,0.00,VWS V14.01,2013-08-26 17:24:00,
2013-08-26 13:29:00,73.4,60.9,31.79,North,355,0.0,1.0,65,0.00,,SKC,0.00,VWS V14.01,2013-08-26 17:29:00,
2013-08-26 13:34:00,73.6,60.7,31.79,SW,236,3.0,4.0,64,0.00,,SKC,0.00,VWS V14.01,2013-08-26 17:34:00,
2013-08-26 13:38:00,73.5,60.6,31.79,East,95,3.0,3.0,64,0.00,,SKC,0.00,VWS V14.01,2013-08-26 17:38:00,
2013-08-26 13:43:00,73.8,60.9,31.79,NNE,13,1.0,1.0,64,0.00,,SKC,0.00,VWS V14.01,2013-08-26 17:43:00,
2013-08-26 13:48:00,74.1,60.7,31.79,South,176,0.0,0.0,63,0.00,,SKC,0.00,VWS V14.01,2013-08-26 17:48:00,
2013-08-26 13:53:00,73.9,61.4,31.79,South,177,0.0,0.0,65,0.00,,SKC,0.00,VWS V14.01,2013-08-26 17:53:00,
2013-08-26 13:58:00,73.9,61.4,31.79,South,178,0.0,0.0,65,0.00,,SKC,0.00,VWS V14.01,2013-08-26 17:58:00,
2013-08-26 14:03:00,73.9,61.8,31.79,South,171,2.0,2.0,66,0.00,,SKC,0.00,VWS V14.01,2013-08-26 18:03:00,
2013-08-26 14:08:00,74.1,62.0,31.79,East,98,1.0,1.0,66,0.00,,SKC,0.00,VWS V14.01,2013-08-26 18:08:00,
2013-08-26 14:13:00,74.3,60.9,31.79,East,98,0.0,1.0,63,0.00,,SKC,0.00,VWS V14.01,2013-08-26 18:13:00,
2013-08-26 14:18:00,74.0,60.6,31.79,ESE,107,7.0,7.0,63,0.00,,SKC,0.00,VWS V14.01,2013-08-26 18:18:00,
2013-08-26 14:23:00,73.7,61.2,31.79,NE,45,4.0,4.0,65,0.00,,SKC,0.00,VWS V14.01,2013-08-26 18:23:00,
2013-08-26 14:28:00,74.5,60.2,31.79,East,80,0.0,1.0,61,0.00,,SKC,0.00,VWS V14.01,2013-08-26 18:28:00,
2013-08-26 14:33:00,75.1,60.8,31.79,East,82,2.0,2.0,61,0.00,,SKC,0.00,VWS V14.01,2013-08-26 18:33:00,
2013-08-26 14:38:00,74.9,60.1,31.79,East,101,2.0,2.0,60,0.00,,SKC,0.00,VWS V14.01,2013-08-26 18:38:00,
2013-08-26 14:43:00,75.8,60.5,31.79,ESE,110,3.0,3.0,59,0.00,,SKC,0.00,VWS V14.01,2013-08-26 18:43:00,
2013-08-26 14:48:00,76.7,62.2,31.79,ESE,111,0.0,0.0,61,0.00,,SKC,0.00,VWS V14.01,2013-08-26 18:48:00,
2013-08-26 14:53:00,76.9,61.0,31.79,NE,37,3.0,3.0,58,0.00,,SKC,0.00,VWS V14.01,2013-08-26 18:53:00,
2013-08-26 14:58:00,77.1,61.7,31.79,North,5,3.0,3.0,59,0.00,,SKC,0.00,VWS V14.01,2013-08-26 18:58:00,
2013-08-26 15:03:00,77.1,61.2,31.79,North,5,0.0,0.0,58,0.00,,SKC,0.00,VWS V14.01,2013-08-26 19:03:00,
2013-08-26 15:08:00,76.9,61.0,31.79,North,5,2.0,2.0,58,0.00,,SKC,0.00,VWS V14.01,2013-08-26 19:08:00,
2013-08-26 15:13:00,76.1,61.2,31.79,North,360,0.0,1.0,60,0.00,,SKC,0.00,VWS V14.01,2013-08-26 19:13:00,
2013-08-26 15:18:00,76.2,61.3,31.79,North,5,0.0,0.0,60,0.00,,SKC,0.00,VWS V14.01,2013-08-26 19:18:00,
2013-08-26 15:23:00,77.0,61.1,31.79,NNW,344,6.0,6.0,58,0.00,,SKC,0.00,VWS V14.01,2013-08-26 19:23:00,
2013-08-26 15:28:00,76.8,60.4,31.79,North,355,0.0,0.0,57,0.00,,SKC,0.00,VWS V14.01,2013-08-26 19:28:00,
2013-08-26 15:33:00,77.1,61.7,31.79,NNW,333,0.0,1.0,59,0.00,,SKC,0.00,VWS V14.01,2013-08-26 19:33:00,
2013-08-26 15:38:00,77.8,62.8,31.79,NNW,333,0.0,1.0,60,0.00,,SKC,0.00,VWS V14.01,2013-08-26 19:38:00,
2013-08-26 15:43:00,77.3,60.4,31.79,East,99,3.0,3.0,56,0.00,,SKC,0.00,VWS V14.01,2013-08-26 19:43:00,
2013-08-26 15:48:00,76.8,61.4,31.79,ESE,102,0.0,1.0,59,0.00,,SKC,0.00,VWS V14.01,2013-08-26 19:48:00,
2013-08-26 15:53:00,76.6,61.7,31.79,ESE,102,0.0,0.0,60,0.00,,SKC,0.00,VWS V14.01,2013-08-26 19:53:00,
2013-08-26 15:58:00,76.0,60.2,31.79,ESE,103,0.0,1.0,58,0.00,,SKC,0.00,VWS V14.01,2013-08-26 19:58:00,
2013-08-26 16:03:00,75.5,60.2,31.79,ESE,103,1.0,2.0,59,0.00,,SKC,0.00,VWS V14.01,2013-08-26 20:03:00,
2013-08-26 16:08:00,75.2,60.8,31.79,ESE,102,0.0,0.0,61,0.00,,SKC,0.00,VWS V14.01,2013-08-26 20:08:00,
2013-08-26 16:13:00,76.0,60.2,31.79,ESE,102,0.0,2.0,58,0.00,,SKC,0.00,VWS V14.01,2013-08-26 20:13:00,
2013-08-26 16:18:00,76.1,60.3,31.79,ESE,102,3.0,4.0,58,0.00,,SKC,0.00,VWS V14.01,2013-08-26 20:18:00,
2013-08-26 16:23:00,75.4,60.6,31.79,ESE,102,0.0,1.0,60,0.00,,SKC,0.00,VWS V14.01,2013-08-26 20:23:00,
2013-08-26 16:28:00,75.2,60.4,31.79,ESE,102,1.0,2.0,60,0.00,,SKC,0.00,VWS V14.01,2013-08-26 20:28:00,
2013-08-26 16:33:00,75.8,59.5,31.79,ESE,102,0.0,0.0,57,0.00,,SKC,0.00,VWS V14.01,2013-08-26 20:33:00,
2013-08-26 16:38:00,77.2,59.8,31.79,NNE,26,0.0,1.0,55,0.00,,SKC,0.00,VWS V14.01,2013-08-26 20:38:00,
2013-08-26 16:43:00,77.3,60.9,31.79,NNE,26,3.0,5.0,57,0.00,,SKC,0.00,VWS V14.01,2013-08-26 20:43:00,
2013-08-26 16:48:00,77.3,60.9,31.79,NNE,25,0.0,0.0,57,0.00,,SKC,0.00,VWS V14.01,2013-08-26 20:48:00,
2013-08-26 16:53:00,77.9,61.5,31.79,SE,129,4.0,5.0,57,0.00,,SKC,0.00,VWS V14.01,2013-08-26 20:53:00,
2013-08-26 16:58:00,78.0,60.5,31.79,North,355,4.0,4.0,55,0.00,,SKC,0.00,VWS V14.01,2013-08-26 20:58:00,
2013-08-26 17:03:00,77.8,60.4,31.79,North,360,2.0,4.0,55,0.00,,SKC,0.00,VWS V14.01,2013-08-26 21:03:00,
2013-08-26 17:08:00,78.0,60.5,31.79,NNW,343,0.0,0.0,55,0.00,,SKC,0.00,VWS V14.01,2013-08-26 21:08:00,
2013-08-26 17:13:00,78.5,61.0,31.79,NNW,343,0.0,1.0,55,0.00,,SKC,0.00,VWS V14.01,2013-08-26 21:13:00,
2013-08-26 17:18:00,78.7,61.7,31.79,ENE,61,4.0,5.0,56,0.00,,SKC,0.00,VWS V14.01,2013-08-26 21:18:00,
2013-08-26 17:23:00,78.7,61.2,31.79,ENE,57,0.0,2.0,55,0.00,,SKC,0.00,VWS V14.01,2013-08-26 21:23:00,
2013-08-26 17:28:00,79.1,61.6,31.79,NNW,344,3.0,3.0,55,0.00,,SKC,0.00,VWS V14.01,2013-08-26 21:28:00,
2013-08-26 17:33:00,78.7,61.2,31.79,NE,38,3.0,5.0,55,0.00,,SKC,0.00,VWS V14.01,2013-08-26 21:33:00,
2013-08-26 17:38:00,77.8,60.9,31.79,NNW,333,4.0,7.0,56,0.00,,SKC,0.00,VWS V14.01,2013-08-26 21:38:00,
2013-08-26 17:43:00,77.6,61.7,31.79,NNE,17,5.0,7.0,58,0.00,,SKC,0.00,VWS V14.01,2013-08-26 21:43:00,
2013-08-26 17:48:00,77.2,60.3,31.79,NNE,17,0.0,5.0,56,0.00,,SKC,0.00,VWS V14.01,2013-08-26 21:48:00,
2013-08-26 17:53:00,76.7,60.8,31.79,NNE,33,6.0,7.0,58,0.00,,SKC,0.00,VWS V14.01,2013-08-26 21:53:00,
2013-08-26 17:58:00,76.4,60.1,31.79,NNE,13,4.0,6.0,57,0.00,,SKC,0.00,VWS V14.01,2013-08-26 21:58:00,
2013-08-26 18:03:00,76.0,61.1,31.79,NNE,28,2.0,4.0,60,0.00,,SKC,0.00,VWS V14.01,2013-08-26 22:03:00,
2013-08-26 18:08:00,76.0,61.1,31.79,North,355,3.0,4.0,60,0.00,,SKC,0.00,VWS V14.01,2013-08-26 22:08:00,
2013-08-26 18:13:00,76.2,61.3,31.79,North,360,0.0,0.0,60,0.00,,SKC,0.00,VWS V14.01,2013-08-26 22:13:00,
2013-08-26 18:18:00,76.3,60.9,31.79,North,355,0.0,2.0,59,0.00,,SKC,0.00,VWS V14.01,2013-08-26 22:18:00,
2013-08-26 18:23:00,75.7,60.8,31.79,North,351,6.0,6.0,60,0.00,,SKC,0.00,VWS V14.01,2013-08-26 22:23:00,
2013-08-26 18:28:00,75.3,60.9,31.79,North,355,4.0,4.0,61,0.00,,SKC,0.00,VWS V14.01,2013-08-26 22:28:00,
2013-08-26 18:33:00,75.3,61.4,31.79,North,355,2.0,2.0,62,0.00,,SKC,0.00,VWS V14.01,2013-08-26 22:33:00,
2013-08-26 18:38:00,75.1,61.2,31.79,NNE,22,3.0,3.0,62,0.00,,SKC,0.00,VWS V14.01,2013-08-26 22:38:00,
2013-08-26 18:43:00,74.9,61.0,31.79,NNE,19,0.0,1.0,62,0.00,,SKC,0.00,VWS V14.01,2013-08-26 22:43:00,
2013-08-26 18:48:00,75.0,62.5,31.79,NNE,19,1.0,2.0,65,0.00,,SKC,0.00,VWS V14.01,2013-08-26 22:48:00,
2013-08-26 18:53:00,74.5,62.0,31.79,NNE,19,1.0,2.0,65,0.00,,SKC,0.00,VWS V14.01,2013-08-26 22:53:00,
2013-08-26 18:58:00,73.8,62.2,31.79,NNE,19,1.0,2.0,67,0.00,,SKC,0.00,VWS V14.01,2013-08-26 22:58:00,
2013-08-26 19:03:00,72.8,61.2,31.79,NNE,19,0.0,0.0,67,0.00,,SKC,0.00,VWS V14.01,2013-08-26 23:03:00,
2013-08-26 19:08:00,72.2,61.1,31.79,NNE,19,0.0,1.0,68,0.00,,SKC,0.00,VWS V14.01,2013-08-26 23:08:00,
2013-08-26 19:13:00,71.6,61.3,31.79,NNE,19,0.0,0.0,70,0.00,,SKC,0.00,VWS V14.01,2013-08-26 23:13:00,
2013-08-26 19:18:00,70.9,61.4,31.79,NNE,19,0.0,0.0,72,0.00,,SKC,0.00,VWS V14.01,2013-08-26 23:18:00,
2013-08-26 19:23:00,70.0,61.3,31.79,NNE,19,1.0,1.0,74,0.00,,SKC,0.00,VWS V14.01,2013-08-26 23:23:00,
2013-08-26 19:28:00,69.3,61.4,31.79,NNE,19,0.0,0.0,76,0.00,,SKC,0.00,VWS V14.01,2013-08-26 23:28:00,
2013-08-26 19:33:00,68.7,61.2,31.79,NNE,19,0.0,0.0,77,0.00,,SKC,0.00,VWS V14.01,2013-08-26 23:33:00,
2013-08-26 19:38:00,68.3,60.8,31.79,NNE,19,0.0,0.0,77,0.00,,SKC,0.00,VWS V14.01,2013-08-26 23:38:00,
2013-08-26 19:43:00,67.9,60.8,31.79,NNE,19,0.0,0.0,78,0.00,,SKC,0.00,VWS V14.01,2013-08-26 23:43:00,
2013-08-26 19:48:00,67.6,60.5,31.79,NNE,19,0.0,0.0,78,0.00,,SKC,0.00,VWS V14.01,2013-08-26 23:48:00,
2013-08-26 19:53:00,67.2,60.5,31.79,NNE,19,0.0,0.0,79,0.00,,SKC,0.00,VWS V14.01,2013-08-26 23:53:00,
2013-08-26 19:58:00,66.8,60.4,31.79,NNE,19,0.0,0.0,80,0.00,,SKC,0.00,VWS V14.01,2013-08-26 23:58:00,
2013-08-26 20:03:00,66.5,60.2,31.79,NNE,19,0.0,0.0,80,0.00,,SKC,0.00,VWS V14.01,2013-08-27 00:03:00,
2013-08-26 20:08:00,66.1,60.1,31.79,NNE,19,0.0,0.0,81,0.00,,SKC,0.00,VWS V14.01,2013-08-27 00:08:00,
2013-08-26 20:13:00,65.9,60.3,31.79,NNE,20,0.0,0.0,82,0.00,,SKC,0.00,VWS V14.01,2013-08-27 00:13:00,
2013-08-26 20:18:00,65.7,60.4,31.79,NNE,19,0.0,0.0,83,0.00,,SKC,0.00,VWS V14.01,2013-08-27 00:18:00,
2013-08-26 20:23:00,65.5,60.2,31.79,NNE,19,0.0,0.0,83,0.00,,SKC,0.00,VWS V14.01,2013-08-27 00:23:00,
2013-08-26 20:27:00,65.2,60.2,31.79,NNE,19,0.0,0.0,84,0.00,,SKC,0.00,VWS V14.01,2013-08-27 00:27:00,
2013-08-26 20:32:00,65.0,60.4,31.79,NNE,19,0.0,0.0,85,0.00,,SKC,0.00,VWS V14.01,2013-08-27 00:32:00,
2013-08-26 20:37:00,64.7,60.1,31.79,NNE,19,0.0,0.0,85,0.00,,SKC,0.00,VWS V14.01,2013-08-27 00:37:00,
2013-08-26 20:42:00,64.4,59.8,31.79,NNE,19,0.0,0.0,85,0.00,,SKC,0.00,VWS V14.01,2013-08-27 00:42:00,
2013-08-26 20:47:00,64.2,59.6,31.79,NNE,19,0.0,0.0,85,0.00,,SKC,0.00,VWS V14.01,2013-08-27 00:47:00,
2013-08-26 20:52:00,64.1,59.5,31.79,NNE,19,0.0,0.0,85,0.00,,SKC,0.00,VWS V14.01,2013-08-27 00:52:00,
2013-08-26 20:57:00,64.0,59.1,31.79,NNE,19,0.0,0.0,84,0.00,,SKC,0.00,VWS V14.01,2013-08-27 00:57:00,
2013-08-26 21:02:00,63.9,59.3,31.79,NNE,19,0.0,0.0,85,0.00,,SKC,0.00,VWS V14.01,2013-08-27 01:02:00,
2013-08-26 21:07:00,63.8,58.9,31.79,NNE,19,0.0,0.0,84,0.00,,SKC,0.00,VWS V14.01,2013-08-27 01:07:00,
2013-08-26 21:12:00,63.6,58.7,31.79,NNE,20,0.0,0.0,84,0.00,,SKC,0.00,VWS V14.01,2013-08-27 01:12:00,
2013-08-26 21:17:00,63.6,58.7,31.79,NNE,19,0.0,0.0,84,0.00,,SKC,0.00,VWS V14.01,2013-08-27 01:17:00,
2013-08-26 21:22:00,63.4,58.5,31.79,NNE,19,0.0,0.0,84,0.00,,SKC,0.00,VWS V14.01,2013-08-27 01:22:00,
2013-08-26 21:27:00,63.2,58.6,31.79,NNE,19,0.0,0.0,85,0.00,,SKC,0.00,VWS V14.01,2013-08-27 01:27:00,
2013-08-26 21:32:00,62.9,58.3,31.79,NNE,19,0.0,0.0,85,0.00,,SKC,0.00,VWS V14.01,2013-08-27 01:32:00,
2013-08-26 21:37:00,62.6,58.4,31.79,NNE,20,0.0,0.0,86,0.00,,SKC,0.00,VWS V14.01,2013-08-27 01:37:00,
2013-08-26 21:42:00,62.3,58.1,31.79,NNE,19,0.0,0.0,86,0.00,,SKC,0.00,VWS V14.01,2013-08-27 01:42:00,
2013-08-26 21:47:00,62.2,58.3,31.79,NNE,19,0.0,0.0,87,0.00,,SKC,0.00,VWS V14.01,2013-08-27 01:47:00,
2013-08-26 21:52:00,62.0,57.8,31.79,NNE,19,0.0,2.0,86,0.00,,SKC,0.00,VWS V14.01,2013-08-27 01:52:00,
2013-08-26 21:57:00,61.9,57.7,31.79,NNE,19,0.0,0.0,86,0.00,,SKC,0.00,VWS V14.01,2013-08-27 01:57:00,
2013-08-26 22:02:00,61.7,57.8,31.79,NNE,19,3.0,3.0,87,0.00,,SKC,0.00,VWS V14.01,2013-08-27 02:02:00,
2013-08-26 22:07:00,61.6,57.7,31.79,NNE,20,0.0,2.0,87,0.00,,SKC,0.00,VWS V14.01,2013-08-27 02:07:00,
2013-08-26 22:12:00,61.2,57.6,31.79,NNE,19,0.0,0.0,88,0.00,,SKC,0.00,VWS V14.01,2013-08-27 02:12:00,
2013-08-26 22:17:00,60.8,57.5,31.79,NNE,20,0.0,0.0,89,0.00,,SKC,0.00,VWS V14.01,2013-08-27 02:17:00,
2013-08-26 22:22:00,60.5,57.2,31.79,NNE,19,0.0,0.0,89,0.00,,SKC,0.00,VWS V14.01,2013-08-27 02:22:00,
2013-08-26 22:27:00,60.3,57.0,31.79,NNE,19,0.0,0.0,89,0.00,,SKC,0.00,VWS V14.01,2013-08-27 02:27:00,
2013-08-26 22:32:00,60.1,57.2,31.79,NNE,20,0.0,0.0,90,0.00,,SKC,0.00,VWS V14.01,2013-08-27 02:32:00,
2013-08-26 22:37:00,59.9,57.0,31.79,NNE,20,0.0,0.0,90,0.00,,SKC,0.00,VWS V14.01,2013-08-27 02:37:00,
2013-08-26 22:42:00,59.7,56.8,31.79,NNE,19,0.0,0.0,90,0.00,,SKC,0.00,VWS V14.01,2013-08-27 02:42:00,
2013-08-26 22:47:00,59.5,56.9,31.79,NNE,20,0.0,0.0,91,0.00,,SKC,0.00,VWS V14.01,2013-08-27 02:47:00,
2013-08-26 22:52:00,59.3,56.7,31.79,NNE,19,0.0,0.0,91,0.00,,SKC,0.00,VWS V14.01,2013-08-27 02:52:00,
2013-08-26 22:57:00,59.1,56.5,31.79,NNE,19,0.0,0.0,91,0.00,,SKC,0.00,VWS V14.01,2013-08-27 02:57:00,
2013-08-26 23:02:00,59.0,56.4,31.79,NNE,20,0.0,0.0,91,0.00,,SKC,0.00,VWS V14.01,2013-08-27 03:02:00,
2013-08-26 23:07:00,59.0,56.4,31.79,NNE,20,0.0,0.0,91,0.00,,SKC,0.00,VWS V14.01,2013-08-27 03:07:00,
2013-08-26 23:12:00,59.0,56.4,31.79,NNE,19,0.0,0.0,91,0.00,,SKC,0.00,VWS V14.01,2013-08-27 03:12:00,
2013-08-26 23:17:00,58.8,56.5,31.79,NNE,20,0.0,0.0,92,0.00,,SKC,0.00,VWS V14.01,2013-08-27 03:17:00,
2013-08-26 23:22:00,58.6,56.3,31.79,NNE,19,0.0,0.0,92,0.00,,SKC,0.00,VWS V14.01,2013-08-27 03:22:00,
2013-08-26 23:27:00,58.4,56.1,31.79,NNE,19,0.0,0.0,92,0.00,,SKC,0.00,VWS V14.01,2013-08-27 03:27:00,
2013-08-26 23:32:00,58.2,55.9,31.79,NNE,20,0.0,0.0,92,0.00,,SKC,0.00,VWS V14.01,2013-08-27 03:32:00,
2013-08-26 23:37:00,58.1,55.8,31.79,NNE,19,0.0,0.0,92,0.00,,SKC,0.00,VWS V14.01,2013-08-27 03:37:00,
2013-08-26 23:42:00,57.9,55.6,31.79,NNE,20,0.0,0.0,92,0.00,,SKC,0.00,VWS V14.01,2013-08-27 03:42:00,
2013-08-26 23:47:00,57.9,55.6,31.79,NNE,19,0.0,0.0,92,0.00,,SKC,0.00,VWS V14.01,2013-08-27 03:47:00,
2013-08-26 23:52:00,57.8,55.5,31.79,NNE,19,2.0,2.0,92,0.00,,SKC,0.00,VWS V14.01,2013-08-27 03:52:00,
2013-08-26 23:57:00,57.7,55.4,31.79,NNE,20,0.0,0.0,92,0.00,,SKC,0.00,VWS V14.01,2013-08-27 03:57:00,